Time;durP1;ratioP1;P1;durP2;ratioP2;P2;SDS_P1;SDS_P2;PMS_P1;PMS_P2;Temp;Humidity;BMP_temperature;BMP_pressure;BME280_temperature;BME280_humidity;BME280_pressure;Samples;Min_cycle;Max_cycle;Signal;HPM_P1;HPM_P2
2022/06/24 00:00:50;;;;;;;;;;;;;;;17.64;86.29;96437.88;30001;983;1882;-57
2022/06/24 00:01:21;;;;;;;;;;;;;;;17.55;88.65;96439.97;30001;983;1877;-58
2022/06/24 00:01:54;;;;;;;;;;;;;;;17.52;88.09;96440.66;30001;983;1882;-58
2022/06/24 00:02:24;;;;;;;;;;;;;;;17.50;88.64;96437.47;30001;983;1882;-59
2022/06/24 00:02:55;;;;;;;;;;;;;;;17.49;88.82;96444.09;30001;983;1882;-58
2022/06/24 00:03:30;;;;;;;;;;;;;;;17.48;88.75;96437.00;30001;983;1788;-58
2022/06/24 00:04:02;;;;;;;;;;;;;;;17.47;88.74;96435.41;30001;983;1882;-58
2022/06/24 00:04:33;;;;;;;;;;;;;;;17.46;89.17;96439.31;30001;982;1882;-58
2022/06/24 00:05:10;;;;;;;;;;;;;;;17.45;88.60;96437.72;30001;982;1869;-58
2022/06/24 00:05:41;;;;;;;;;;;;;;;17.41;89.97;96430.16;30001;982;1873;-59
2022/06/24 00:06:14;;;;;;;;;;;;;;;17.39;90.22;96432.47;30001;982;1791;-58
2022/06/24 00:06:46;;;;;;;;;;;;;;;17.36;89.87;96427.66;30001;983;1882;-57
2022/06/24 00:07:17;;;;;;;;;;;;;;;17.34;90.03;96427.22;30001;983;1868;-58
2022/06/24 00:07:50;;;;;;;;;;;;;;;17.33;89.82;96431.09;30001;983;1873;-59
2022/06/24 00:08:21;;;;;;;;;;;;;;;17.34;89.89;96431.91;30001;983;1882;-58
2022/06/24 00:08:53;;;;;;;;;;;;;;;17.32;89.40;96432.28;30001;983;1868;-58
2022/06/24 00:09:28;;;;;;;;;;;;;;;17.33;89.48;96428.34;30001;983;1873;-58
2022/06/24 00:09:59;;;;;;;;;;;;;;;17.33;89.80;96433.84;30001;983;1869;-58
2022/06/24 00:10:32;;;;;;;;;;;;;;;17.35;89.72;96437.03;30001;983;1873;-58
2022/06/24 00:11:12;;;;;;;;;;;;;;;17.36;90.09;96438.62;30001;983;1869;-58
2022/06/24 00:11:44;;;;;;;;;;;;;;;17.36;89.94;96438.62;30001;982;1873;-59
2022/06/24 00:12:19;;;;;;;;;;;;;;;17.39;90.16;96435.19;30001;982;1882;-58
2022/06/24 00:12:51;;;;;;;;;;;;;;;17.41;89.83;96434.84;30001;982;1882;-57
2022/06/24 00:13:22;;;;;;;;;;;;;;;17.41;89.35;96432.91;30001;982;1883;-58
2022/06/24 00:14:03;;;;;;;;;;;;;;;17.42;89.35;96436.47;30001;982;1869;-58
2022/06/24 00:14:35;;;;;;;;;;;;;;;17.43;89.33;96435.31;30001;983;1873;-57
2022/06/24 00:15:07;;;;;;;;;;;;;;;17.42;89.44;96437.25;30001;983;1882;-58
2022/06/24 00:15:38;;;;;;;;;;;;;;;17.48;89.20;96435.06;30001;983;1882;-59
2022/06/24 00:16:09;;;;;;;;;;;;;;;17.53;88.36;96436.78;30001;983;1882;-57
2022/06/24 00:16:56;;;;;;;;;;;;;;;17.56;88.04;96439.63;30001;983;1882;-57
2022/06/24 00:17:28;;;;;;;;;;;;;;;17.59;87.49;96429.91;30001;983;1869;-58
2022/06/24 00:18:11;;;;;;;;;;;;;;;17.65;87.66;96423.84;30001;957;1899;-57
2022/06/24 00:18:41;;;;;;;;;;;;;;;17.67;86.62;96428.97;30001;983;1882;-58
2022/06/24 00:19:15;;;;;;;;;;;;;;;17.65;86.91;96429.34;30001;983;1882;-57
2022/06/24 00:19:57;;;;;;;;;;;;;;;17.66;86.47;96419.16;30001;959;1892;-57
2022/06/24 00:20:28;;;;;;;;;;;;;;;17.65;86.74;96423.03;30001;982;1874;-58
2022/06/24 00:20:58;;;;;;;;;;;;;;;17.66;86.18;96424.66;30001;982;1883;-58
2022/06/24 00:21:29;;;;;;;;;;;;;;;17.67;86.28;96427.00;30001;982;1883;-58
2022/06/24 00:22:01;;;;;;;;;;;;;;;17.69;86.20;96418.44;30001;983;1882;-59
2022/06/24 00:22:42;;;;;;;;;;;;;;;17.68;86.08;96423.12;30001;983;1868;-57
2022/06/24 00:23:15;;;;;;;;;;;;;;;17.66;86.09;96421.91;30001;983;1873;-58
2022/06/24 00:23:45;;;;;;;;;;;;;;;17.65;86.59;96423.03;30001;983;1882;-58
2022/06/24 00:24:23;;;;;;;;;;;;;;;17.65;86.55;96423.03;30001;983;1882;-57
2022/06/24 00:25:11;;;;;;;;;;;;;;;17.66;86.83;96421.91;30001;983;1882;-58
2022/06/24 00:25:43;;;;;;;;;;;;;;;17.64;86.57;96432.41;30001;965;1878;-58
2022/06/24 00:26:14;;;;;;;;;;;;;;;17.61;87.26;96422.91;30001;983;1873;-59
2022/06/24 00:26:45;;;;;;;;;;;;;;;17.58;87.62;96420.88;30001;983;1882;-57
2022/06/24 00:27:24;;;;;;;;;;;;;;;17.55;88.13;96418.03;30001;982;1882;-59
2022/06/24 00:28:00;;;;;;;;;;;;;;;17.53;88.30;96420.31;30001;961;1890;-59
2022/06/24 00:28:31;;;;;;;;;;;;;;;17.51;88.05;96422.59;30001;982;1874;-58
2022/06/24 00:29:02;;;;;;;;;;;;;;;17.51;88.43;96422.59;30001;982;1883;-58
2022/06/24 00:29:33;;;;;;;;;;;;;;;17.50;89.36;96423.75;30001;983;1882;-58
2022/06/24 00:30:12;;;;;;;;;;;;;;;17.49;90.55;96419.41;30001;983;1882;-57
2022/06/24 00:30:43;;;;;;;;;;;;;;;17.45;90.71;96418.50;30001;983;1882;-57
2022/06/24 00:31:14;;;;;;;;;;;;;;;17.42;90.86;96414.50;30001;983;1882;-59
2022/06/24 00:32:07;;;;;;;;;;;;;;;17.40;90.31;96417.59;30001;983;1882;-57
2022/06/24 00:32:39;;;;;;;;;;;;;;;17.41;89.69;96413.72;30001;983;1882;-58
2022/06/24 00:33:14;;;;;;;;;;;;;;;17.46;89.18;96420.09;30001;983;1869;-57
2022/06/24 00:33:46;;;;;;;;;;;;;;;17.47;88.51;96417.00;30001;982;1873;-58
2022/06/24 00:34:23;;;;;;;;;;;;;;;17.47;88.48;96421.69;30001;982;1882;-58
2022/06/24 00:35:01;;;;;;;;;;;;;;;17.48;88.88;96417.81;30001;982;1882;-58
2022/06/24 00:35:36;;;;;;;;;;;;;;;17.45;89.81;96413.03;30001;982;1869;-57
2022/06/24 00:36:07;;;;;;;;;;;;;;;17.43;89.29;96421.59;30001;983;1873;-57
2022/06/24 00:36:38;;;;;;;;;;;;;;;17.41;89.20;96410.97;30001;983;1881;-58
2022/06/24 00:37:26;;;;;;;;;;;;;;;17.41;88.98;96410.97;30001;983;1882;-57
2022/06/24 00:37:57;;;;;;;;;;;;;;;17.40;89.54;96409.38;30001;983;1882;-58
2022/06/24 00:38:46;;;;;;;;;;;;;;;17.39;89.55;96418.75;30001;983;1869;-58
2022/06/24 00:39:16;;;;;;;;;;;;;;;17.39;89.26;96415.22;30001;983;1869;-58
2022/06/24 00:39:47;;;;;;;;;;;;;;;17.38;90.30;96411.66;30001;983;1882;-58
2022/06/24 00:40:22;;;;;;;;;;;;;;;17.37;91.10;96418.28;30001;983;1882;-59
2022/06/24 00:41:13;;;;;;;;;;;;;;;17.35;92.31;96411.56;30001;984;1869;-58
2022/06/24 00:41:49;;;;;;;;;;;;;;;17.32;92.24;96404.84;30001;982;1870;-58
2022/06/24 00:42:21;;;;;;;;;;;;;;;17.31;91.39;96406.00;30001;982;1882;-57
2022/06/24 00:42:52;;;;;;;;;;;;;;;17.34;90.56;96408.03;30001;982;1882;-58
2022/06/24 00:43:27;;;;;;;;;;;;;;;17.36;89.96;96404.94;30001;982;1882;-57
2022/06/24 00:44:00;;;;;;;;;;;;;;;17.36;89.83;96403.00;30001;983;1882;-58
2022/06/24 00:44:41;;;;;;;;;;;;;;;17.37;89.35;96401.84;30001;983;1882;-57
2022/06/24 00:45:49;;;;;;;;;;;;;;;17.36;89.27;96389.28;30001;983;1882;-57
2022/06/24 00:46:28;;;;;;;;;;;;;;;17.38;89.77;96403.44;30001;983;1864;-58
2022/06/24 00:46:59;;;;;;;;;;;;;;;17.36;89.42;96392.03;30001;983;1860;-58
2022/06/24 00:47:30;;;;;;;;;;;;;;;17.37;89.61;96399.09;30001;983;1882;-58
2022/06/24 00:48:07;;;;;;;;;;;;;;;17.39;89.39;96405.03;30001;983;1882;-57
2022/06/24 00:48:41;;;;;;;;;;;;;;;17.41;88.99;96390.97;30001;982;1882;-60
2022/06/24 00:49:23;;;;;;;;;;;;;;;17.46;88.76;96395.41;30001;982;1882;-59
2022/06/24 00:49:57;;;;;;;;;;;;;;;17.51;nan;96397.91;30001;982;1882;-59
2022/06/24 00:50:31;;;;;;;;;;;;;;;17.52;87.82;96391.28;30001;982;1883;-58
2022/06/24 00:51:02;;;;;;;;;;;;;;;17.51;87.91;96401.47;30001;982;1883;-57
2022/06/24 00:51:33;;;;;;;;;;;;;;;17.50;88.52;96396.31;30001;983;1882;-59
2022/06/24 00:52:08;;;;;;;;;;;;;;;17.47;88.83;96394.28;30001;983;1869;-58
2022/06/24 00:52:39;;;;;;;;;;;;;;;17.44;89.13;96395.78;30001;983;1873;-58
2022/06/24 00:53:10;;;;;;;;;;;;;;;17.41;88.60;96397.25;30001;983;1882;-57
2022/06/24 00:53:51;;;;;;;;;;;;;;;17.45;88.99;96400.09;30001;983;1882;-58
2022/06/24 00:54:23;;;;;;;;;;;;;;;17.50;87.93;96396.31;30001;983;1882;-58
2022/06/24 00:54:55;;;;;;;;;;;;;;;17.52;87.56;96402.25;30001;983;1882;-58
2022/06/24 00:55:28;;;;;;;;;;;;;;;17.55;87.96;96401.56;30001;983;1882;-58
2022/06/24 00:56:02;;;;;;;;;;;;;;;17.57;87.55;96400.06;30001;983;1882;-58
2022/06/24 00:56:33;;;;;;;;;;;;;;;17.58;87.52;96403.59;30001;982;1882;-58
2022/06/24 00:57:06;;;;;;;;;;;;;;;17.60;87.47;96406.81;30001;982;1869;-58
2022/06/24 00:57:36;;;;;;;;;;;;;;;17.63;87.06;96406.09;30001;982;1874;-57
2022/06/24 00:58:15;;;;;;;;;;;;;;;17.65;87.22;96412.06;30001;982;1783;-58
2022/06/24 00:58:50;;;;;;;;;;;;;;;17.64;86.89;96410.44;30001;983;1868;-58
2022/06/24 00:59:20;;;;;;;;;;;;;;;17.67;87.08;96412.53;30001;983;1873;-59
2022/06/24 00:59:52;;;;;;;;;;;;;;;17.68;86.59;96411.34;30001;983;1869;-58
2022/06/24 01:00:23;;;;;;;;;;;;;;;17.68;86.51;96412.16;30001;983;1873;-57
2022/06/24 01:00:54;;;;;;;;;;;;;;;17.71;86.46;96407.91;30001;983;1882;-58
2022/06/24 01:01:29;;;;;;;;;;;;;;;17.69;86.38;96411.00;30001;983;1882;-59
2022/06/24 01:02:04;;;;;;;;;;;;;;;17.67;86.53;96405.06;30001;983;1882;-59
2022/06/24 01:02:35;;;;;;;;;;;;;;;17.64;86.64;96404.97;30001;983;1882;-57
2022/06/24 01:03:06;;;;;;;;;;;;;;;17.62;86.91;96401.75;30001;982;1882;-58
2022/06/24 01:03:43;;;;;;;;;;;;;;;17.60;86.73;96401.31;30001;982;1882;-58
2022/06/24 01:04:13;;;;;;;;;;;;;;;17.56;86.96;96403.16;30001;982;1882;-57
2022/06/24 01:04:45;;;;;;;;;;;;;;;17.56;87.47;96398.47;30001;982;1869;-58
2022/06/24 01:05:16;;;;;;;;;;;;;;;17.56;87.32;96392.19;30001;982;1874;-58
2022/06/24 01:05:47;;;;;;;;;;;;;;;17.57;87.12;96394.59;30001;982;1882;-58
2022/06/24 01:06:18;;;;;;;;;;;;;;;17.57;87.40;96393.78;30001;983;1882;-58
2022/06/24 01:06:49;;;;;;;;;;;;;;;17.56;87.10;96390.25;30001;983;1882;-58
2022/06/24 01:07:20;;;;;;;;;;;;;;;17.55;87.36;96390.59;30001;983;1882;-58
2022/06/24 01:07:50;;;;;;;;;;;;;;;17.56;87.36;96383.97;30001;983;1882;-57
2022/06/24 01:08:21;;;;;;;;;;;;;;;17.55;87.49;96387.84;30001;983;1788;-58
2022/06/24 01:08:52;;;;;;;;;;;;;;;17.58;87.64;96384.41;30001;983;1882;-60
2022/06/24 01:09:27;;;;;;;;;;;;;;;17.58;87.67;96385.19;30001;983;1882;-58
2022/06/24 01:09:59;;;;;;;;;;;;;;;17.56;87.37;96386.69;30001;983;1869;-58
2022/06/24 01:10:30;;;;;;;;;;;;;;;17.54;87.35;96384.31;30001;982;1873;-60
2022/06/24 01:11:01;;;;;;;;;;;;;;;17.55;87.80;96374.94;30001;974;1899;-57
2022/06/24 01:11:34;;;;;;;;;;;;;;;17.53;87.42;96381.91;30001;970;1906;-59
2022/06/24 01:12:05;;;;;;;;;;;;;;;17.51;87.31;96386.94;30001;982;1882;-58
2022/06/24 01:12:37;;;;;;;;;;;;;;;17.46;88.37;96382.50;30001;982;1882;-58
2022/06/24 01:13:10;;;;;;;;;;;;;;;17.42;88.41;96381.59;30001;982;1883;-58
2022/06/24 01:13:41;;;;;;;;;;;;;;;17.48;88.54;96379.41;30001;982;1883;-57
2022/06/24 01:14:13;;;;;;;;;;;;;;;17.51;88.25;96375.97;30001;983;1882;-58
2022/06/24 01:14:43;;;;;;;;;;;;;;;17.52;88.53;96380.31;30001;983;1869;-58
2022/06/24 01:15:14;;;;;;;;;;;;;;;17.58;88.04;96376.19;30001;983;1873;-59
2022/06/24 01:15:45;;;;;;;;;;;;;;;17.61;87.72;96372.72;30001;983;1882;-58
2022/06/24 01:16:16;;;;;;;;;;;;;;;17.55;87.84;96374.13;30001;983;1869;-59
2022/06/24 01:16:47;;;;;;;;;;;;;;;17.48;87.74;96369.25;30001;983;1873;-58
2022/06/24 01:17:18;;;;;;;;;;;;;;;17.43;87.83;96364.81;30001;983;1869;-59
2022/06/24 01:17:50;;;;;;;;;;;;;;;17.40;88.30;96373.72;30001;983;1873;-59
2022/06/24 01:18:21;;;;;;;;;;;;;;;17.38;88.30;96376.00;30001;982;1882;-58
2022/06/24 01:18:53;;;;;;;;;;;;;;;17.41;88.49;96378.06;30001;982;1882;-58
2022/06/24 01:19:26;;;;;;;;;;;;;;;17.40;nan;96378.41;30001;982;1882;-58
2022/06/24 01:19:57;;;;;;;;;;;;;;;17.36;89.50;96377.50;30001;982;1869;-59
2022/06/24 01:20:28;;;;;;;;;;;;;;;17.32;89.26;96371.16;30001;982;1874;-58
2022/06/24 01:20:59;;;;;;;;;;;;;;;17.30;89.21;96366.03;30001;982;1882;-57
2022/06/24 01:21:34;;;;;;;;;;;;;;;17.38;89.14;96370.53;30001;983;1882;-58
2022/06/24 01:22:05;;;;;;;;;;;;;;;17.40;88.73;96367.44;30001;983;1882;-59
2022/06/24 01:22:36;;;;;;;;;;;;;;;17.42;88.82;96367.91;30001;983;1882;-60
2022/06/24 01:23:06;;;;;;;;;;;;;;;17.45;88.55;96369.12;30001;983;1882;-58
2022/06/24 01:23:37;;;;;;;;;;;;;;;17.43;88.58;96373.03;30001;983;1787;-58
2022/06/24 01:24:12;;;;;;;;;;;;;;;17.44;88.62;96365.59;30001;983;1882;-58
2022/06/24 01:24:43;;;;;;;;;;;;;;;17.46;88.52;96363.31;30001;983;1882;-57
2022/06/24 01:25:14;;;;;;;;;;;;;;;17.42;88.34;96359.66;30001;983;1869;-58
2022/06/24 01:25:45;;;;;;;;;;;;;;;17.38;88.96;96358.75;30001;982;1873;-58
2022/06/24 01:26:16;;;;;;;;;;;;;;;17.40;88.62;96368.25;30001;982;1882;-58
2022/06/24 01:26:51;;;;;;;;;;;;;;;17.43;88.71;96362.06;30001;982;1882;-58
2022/06/24 01:27:21;;;;;;;;;;;;;;;17.39;88.52;96358.41;30001;982;1882;-58
2022/06/24 01:27:52;;;;;;;;;;;;;;;17.35;89.08;96360.25;30001;982;1882;-58
2022/06/24 01:28:23;;;;;;;;;;;;;;;17.29;89.37;96356.19;30001;982;1883;-58
2022/06/24 01:28:54;;;;;;;;;;;;;;;17.27;89.48;96358.50;30001;983;1882;-57
2022/06/24 01:29:25;;;;;;;;;;;;;;;17.26;89.60;96350.59;30001;983;1882;-56
2022/06/24 01:29:56;;;;;;;;;;;;;;;17.23;89.91;96357.59;30001;983;1869;-58
2022/06/24 01:30:28;;;;;;;;;;;;;;;17.20;90.11;96352.78;30001;983;1873;-58
2022/06/24 01:30:58;;;;;;;;;;;;;;;17.18;91.09;96349.59;30001;983;1882;-58
2022/06/24 01:31:30;;;;;;;;;;;;;;;17.15;91.42;96350.28;30001;983;1882;-59
2022/06/24 01:32:01;;;;;;;;;;;;;;;17.12;91.97;96342.75;30001;983;1882;-57
2022/06/24 01:32:34;;;;;;;;;;;;;;;17.11;91.49;96343.91;30001;983;1882;-57
2022/06/24 01:33:06;;;;;;;;;;;;;;;17.10;91.69;96342.31;30001;982;1882;-58
2022/06/24 01:33:37;;;;;;;;;;;;;;;17.09;91.13;96346.19;30001;982;1882;-58
2022/06/24 01:34:09;;;;;;;;;;;;;;;17.08;91.53;96350.87;30001;982;1882;-58
2022/06/24 01:34:40;;;;;;;;;;;;;;;17.09;91.41;96357.16;30001;982;1882;-55
2022/06/24 01:35:11;;;;;;;;;;;;;;;17.07;91.32;96352.03;30001;982;1869;-58
2022/06/24 01:35:41;;;;;;;;;;;;;;;17.08;91.76;96358.31;30001;983;1873;-55
2022/06/24 01:36:12;;;;;;;;;;;;;;;17.07;92.09;96363.00;30001;983;1882;-58
2022/06/24 01:36:45;;;;;;;;;;;;;;;17.06;91.83;96368.81;30001;983;1882;-57
2022/06/24 01:37:15;;;;;;;;;;;;;;;17.05;92.09;96359.78;30001;983;1882;-58
2022/06/24 01:37:47;;;;;;;;;;;;;;;17.07;92.57;96364.94;30001;983;1882;-57
2022/06/24 01:38:17;;;;;;;;;;;;;;;17.07;92.91;96362.19;30001;983;1882;-57
2022/06/24 01:38:49;;;;;;;;;;;;;;;17.07;92.81;96365.72;30001;983;1869;-57
2022/06/24 01:39:23;;;;;;;;;;;;;;;17.07;93.02;96362.19;30001;983;1873;-58
2022/06/24 01:39:54;;;;;;;;;;;;;;;17.11;92.16;96360.34;30001;983;1882;-58
2022/06/24 01:40:24;;;;;;;;;;;;;;;17.11;91.70;96365.84;30001;983;1882;-57
2022/06/24 01:40:55;;;;;;;;;;;;;;;17.11;91.81;96360.34;30001;982;1869;-58
2022/06/24 01:41:26;;;;;;;;;;;;;;;17.13;92.13;96373.72;30001;982;1860;-56
2022/06/24 01:41:57;;;;;;;;;;;;;;;17.19;91.98;96372.34;30001;982;1882;-58
2022/06/24 01:42:28;;;;;;;;;;;;;;;17.21;91.60;96375.53;30001;982;1869;-57
2022/06/24 01:43:01;;;;;;;;;;;;;;;17.19;91.24;96367.66;30001;982;1874;-57
2022/06/24 01:43:32;;;;;;;;;;;;;;;17.17;91.25;96363.66;30001;983;1881;-59
2022/06/24 01:44:03;;;;;;;;;;;;;;;17.18;91.09;96359.78;30001;983;1882;-58
2022/06/24 01:44:34;;;;;;;;;;;;;;;17.18;91.20;96366.06;30001;983;1882;-56
2022/06/24 01:45:08;;;;;;;;;;;;;;;17.18;90.78;96359.78;30001;983;1882;-58
2022/06/24 01:45:38;;;;;;;;;;;;;;;17.16;90.97;96357.37;30001;983;1882;-57
2022/06/24 01:46:11;;;;;;;;;;;;;;;17.22;90.32;96350.50;30001;983;1869;-58
2022/06/24 01:46:42;;;;;;;;;;;;;;;17.21;90.73;96357.13;30001;983;1873;-58
2022/06/24 01:47:13;;;;;;;;;;;;;;;17.18;90.33;96355.09;30001;983;1869;-57
2022/06/24 01:47:44;;;;;;;;;;;;;;;17.15;90.95;96350.28;30001;983;1873;-58
2022/06/24 01:48:14;;;;;;;;;;;;;;;17.16;90.58;96351.88;30001;982;1882;-58
2022/06/24 01:48:45;;;;;;;;;;;;;;;17.14;90.64;96354.19;30001;982;1788;-57
2022/06/24 01:49:16;;;;;;;;;;;;;;;17.13;90.59;96352.59;30001;982;1869;-57
2022/06/24 01:49:47;;;;;;;;;;;;;;;17.13;90.90;96355.31;30001;982;1874;-57
2022/06/24 01:50:18;;;;;;;;;;;;;;;17.12;90.60;96356.47;30001;982;1883;-58
2022/06/24 01:50:49;;;;;;;;;;;;;;;17.10;90.85;96364.25;30001;986;1868;-58
2022/06/24 01:51:21;;;;;;;;;;;;;;;17.10;90.85;96364.25;30001;983;1873;-57
2022/06/24 01:51:54;;;;;;;;;;;;;;;17.08;91.21;96366.53;30001;983;1868;-58
2022/06/24 01:52:25;;;;;;;;;;;;;;;17.07;91.24;96364.94;30001;983;1873;-58
2022/06/24 01:52:55;;;;;;;;;;;;;;;17.05;91.46;96361.75;30001;983;1882;-58
2022/06/24 01:53:26;;;;;;;;;;;;;;;17.04;91.60;96362.88;30001;983;1882;-57
2022/06/24 01:53:57;;;;;;;;;;;;;;;17.03;91.55;96358.53;30001;983;1882;-57
2022/06/24 01:54:28;;;;;;;;;;;;;;;17.01;91.87;96358.09;30001;983;1882;-58
2022/06/24 01:54:59;;;;;;;;;;;;;;;16.97;92.65;96358.03;30001;983;1869;-58
2022/06/24 01:55:29;;;;;;;;;;;;;;;16.97;92.89;96359.97;30001;983;1873;-57
2022/06/24 01:56:00;;;;;;;;;;;;;;;17.00;92.16;96364.72;30001;982;1882;-59
2022/06/24 01:56:31;;;;;;;;;;;;;;;17.09;91.05;96357.97;30001;982;1882;-57
2022/06/24 01:57:02;;;;;;;;;;;;;;;17.15;90.58;96354.97;30001;982;1800;-57
2022/06/24 01:57:33;;;;;;;;;;;;;;;17.17;89.90;96353.50;30001;982;1882;-58
2022/06/24 01:58:04;;;;;;;;;;;;;;;17.16;89.80;96353.84;30001;982;1883;-57
2022/06/24 01:58:35;;;;;;;;;;;;;;;17.13;90.01;96355.31;30001;983;1868;-57
2022/06/24 01:59:06;;;;;;;;;;;;;;;17.11;90.14;96360.34;30001;983;1873;-58
2022/06/24 01:59:37;;;;;;;;;;;;;;;17.09;89.79;96357.16;30001;983;1848;-58
2022/06/24 02:00:08;;;;;;;;;;;;;;;17.08;90.04;96359.09;30001;983;1882;-57
2022/06/24 02:00:48;;;;;;;;;;;;;;;17.12;89.87;96361.94;30001;983;1882;-58
2022/06/24 02:01:19;;;;;;;;;;;;;;;17.11;89.82;96354.88;30001;983;1869;-57
2022/06/24 02:01:50;;;;;;;;;;;;;;;17.08;89.96;96353.62;30001;983;1873;-58
2022/06/24 02:02:21;;;;;;;;;;;;;;;17.06;90.35;96352.38;30001;983;1882;-57
2022/06/24 02:02:52;;;;;;;;;;;;;;;17.05;90.15;96351.56;30001;987;1878;-57
2022/06/24 02:03:23;;;;;;;;;;;;;;;17.05;90.49;96342.56;30001;982;1882;-57
2022/06/24 02:03:54;;;;;;;;;;;;;;;17.06;90.14;96352.38;30001;982;1882;-57
2022/06/24 02:04:25;;;;;;;;;;;;;;;17.06;90.20;96355.13;30001;982;1882;-57
2022/06/24 02:04:55;;;;;;;;;;;;;;;17.02;90.72;96348.72;30001;982;1883;-57
2022/06/24 02:05:27;;;;;;;;;;;;;;;16.99;90.73;96355.69;30001;982;1883;-58
2022/06/24 02:06:05;;;;;;;;;;;;;;;17.01;90.52;96352.63;30001;983;1882;-58
2022/06/24 02:06:36;;;;;;;;;;;;;;;17.00;90.22;96349.06;30001;983;1868;-58
2022/06/24 02:07:10;;;;;;;;;;;;;;;17.03;90.21;96353.06;30001;983;1860;-57
2022/06/24 02:07:41;;;;;;;;;;;;;;;17.02;90.18;96352.25;30001;983;1882;-58
2022/06/24 02:08:13;;;;;;;;;;;;;;;17.11;89.67;96349.38;30001;983;1882;-57
2022/06/24 02:08:44;;;;;;;;;;;;;;;17.13;89.61;96352.59;30001;983;1882;-59
2022/06/24 02:09:16;;;;;;;;;;;;;;;17.11;89.26;96346.66;30001;983;1882;-57
2022/06/24 02:13:55;;;;;;;;;;;;;;;17.09;89.50;96346.19;30001;983;1882;-57
2022/06/24 02:14:26;;;;;;;;;;;;;;;17.10;89.05;96350.53;30001;961;1816;-57
2022/06/24 02:14:58;;;;;;;;;;;;;;;17.13;88.72;96340.81;30001;983;1882;-58
2022/06/24 02:15:30;;;;;;;;;;;;;;;17.14;88.84;96347.91;30001;983;1882;-57
2022/06/24 02:16:03;;;;;;;;;;;;;;;17.11;88.85;96349.38;30001;983;1882;-58
2022/06/24 02:16:34;;;;;;;;;;;;;;;17.08;89.16;96344.59;30001;983;1869;-57
2022/06/24 02:17:05;;;;;;;;;;;;;;;17.06;89.02;96346.88;30001;983;1873;-58
2022/06/24 02:17:36;;;;;;;;;;;;;;;17.02;89.89;96346.00;30001;982;1882;-58
2022/06/24 02:18:07;;;;;;;;;;;;;;;17.01;89.88;96344.38;30001;982;1882;-58
2022/06/24 02:18:38;;;;;;;;;;;;;;;16.98;89.75;96343.13;30001;982;1882;-58
2022/06/24 02:19:09;;;;;;;;;;;;;;;17.02;89.08;96340.50;30001;982;1882;-57
2022/06/24 02:19:41;;;;;;;;;;;;;;;17.10;89.01;96342.31;30001;982;1882;-59
2022/06/24 02:20:12;;;;;;;;;;;;;;;17.09;88.60;96341.50;30001;982;1882;-57
2022/06/24 02:20:43;;;;;;;;;;;;;;;17.07;88.77;96343.00;30001;982;1882;-57
2022/06/24 02:21:14;;;;;;;;;;;;;;;17.09;88.67;96344.25;30001;983;1868;-58
2022/06/24 02:21:45;;;;;;;;;;;;;;;17.07;88.67;96343.00;30001;983;1873;-57
2022/06/24 02:22:16;;;;;;;;;;;;;;;17.05;88.75;96339.81;30001;983;1869;-58
2022/06/24 02:22:47;;;;;;;;;;;;;;;17.02;89.11;96338.56;30001;983;1873;-57
2022/06/24 02:23:18;;;;;;;;;;;;;;;17.01;89.09;96349.87;30001;983;1882;-57
2022/06/24 02:23:49;;;;;;;;;;;;;;;16.98;89.17;96339.62;30001;983;1882;-57
2022/06/24 02:24:20;;;;;;;;;;;;;;;16.96;89.24;96341.91;30001;983;1882;-58
2022/06/24 02:24:51;;;;;;;;;;;;;;;16.94;90.09;96335.97;30001;983;1882;-57
2022/06/24 02:25:22;;;;;;;;;;;;;;;16.90;90.54;96338.62;30001;982;1882;-57
2022/06/24 02:25:53;;;;;;;;;;;;;;;16.86;91.06;96334.97;30001;982;1869;-57
2022/06/24 02:26:25;;;;;;;;;;;;;;;16.85;91.62;96338.84;30001;982;1874;-57
2022/06/24 02:26:56;;;;;;;;;;;;;;;16.84;91.74;96339.19;30001;982;1882;-58
2022/06/24 02:27:27;;;;;;;;;;;;;;;16.81;91.83;96337.16;30001;982;1882;-58
2022/06/24 02:27:58;;;;;;;;;;;;;;;16.80;91.76;96338.28;30001;982;1869;-58
2022/06/24 02:28:29;;;;;;;;;;;;;;;16.84;91.75;96330.97;30001;983;1873;-57
2022/06/24 02:29:00;;;;;;;;;;;;;;;16.86;90.79;96336.91;30001;983;1882;-58
2022/06/24 02:29:31;;;;;;;;;;;;;;;16.90;89.98;96337.81;30001;983;1882;-58
2022/06/24 02:30:02;;;;;;;;;;;;;;;16.90;90.23;96337.81;30001;983;1882;-57
2022/06/24 02:30:33;;;;;;;;;;;;;;;16.89;90.35;96336.22;30001;983;1882;-58
2022/06/24 02:31:05;;;;;;;;;;;;;;;16.90;89.80;96338.62;30001;983;1808;-57
2022/06/24 02:31:37;;;;;;;;;;;;;;;16.90;89.86;96335.87;30001;985;1882;-57
2022/06/24 02:32:11;;;;;;;;;;;;;;;16.86;89.96;96332.22;30001;983;1882;-57
2022/06/24 02:32:43;;;;;;;;;;;;;;;16.83;90.17;96335.66;30001;982;1882;-57
2022/06/24 02:33:15;;;;;;;;;;;;;;;16.79;91.06;96337.50;30001;982;1869;-58
2022/06/24 02:33:46;;;;;;;;;;;;;;;16.84;90.51;96336.47;30001;982;1873;-58
2022/06/24 02:34:17;;;;;;;;;;;;;;;16.84;89.96;96341.94;30001;982;1882;-57
2022/06/24 02:34:48;;;;;;;;;;;;;;;16.85;90.09;96340.81;30001;982;1882;-57
2022/06/24 02:35:19;;;;;;;;;;;;;;;16.84;90.63;96336.47;30001;982;1882;-57
2022/06/24 02:35:50;;;;;;;;;;;;;;;16.87;90.24;96338.50;30001;982;1883;-59
2022/06/24 02:36:21;;;;;;;;;;;;;;;16.87;90.00;96333.81;30001;983;1882;-57
2022/06/24 02:36:52;;;;;;;;;;;;;;;16.91;89.72;96337.47;30001;983;1882;-58
2022/06/24 02:37:23;;;;;;;;;;;;;;;16.92;89.45;96335.53;30001;983;1882;-58
2022/06/24 02:37:53;;;;;;;;;;;;;;;16.90;89.58;96332.34;30001;983;1871;-57
2022/06/24 02:38:25;;;;;;;;;;;;;;;16.87;89.67;96338.50;30001;983;1869;-58
2022/06/24 02:38:55;;;;;;;;;;;;;;;16.85;89.85;96341.59;30001;983;1873;-57
2022/06/24 02:39:26;;;;;;;;;;;;;;;16.82;89.86;96336.00;30001;983;1882;-56
2022/06/24 02:40:45;;;;;;;;;;;;;;;16.78;90.19;96335.91;30001;983;1882;-58
2022/06/24 02:40:48;;;;;;;;;;;;;;;16.74;90.52;96335.00;30001;982;1882;-57
2022/06/24 02:41:20;;;;;;;;;;;;;;;16.84;90.14;96334.53;30001;982;1882;-59
2022/06/24 02:41:50;;;;;;;;;;;;;;;16.83;89.59;96337.59;30001;982;1882;-58
2022/06/24 02:42:21;;;;;;;;;;;;;;;16.88;89.26;96334.63;30001;982;1882;-57
2022/06/24 02:42:56;;;;;;;;;;;;;;;16.88;89.16;96337.38;30001;983;1881;-56
2022/06/24 02:43:34;;;;;;;;;;;;;;;16.86;88.99;96342.41;30001;983;1868;-58
2022/06/24 02:44:05;;;;;;;;;;;;;;;16.85;89.15;96330.62;30001;983;1863;-58
2022/06/24 02:44:36;;;;;;;;;;;;;;;16.83;89.09;96332.12;30001;987;1869;-59
2022/06/24 02:45:08;;;;;;;;;;;;;;;16.85;89.03;96333.38;30001;983;1873;-57
2022/06/24 02:45:39;;;;;;;;;;;;;;;16.85;89.04;96340.81;30001;983;1882;-58
2022/06/24 02:46:11;;;;;;;;;;;;;;;16.88;89.18;96342.84;30001;983;1882;-56
2022/06/24 02:46:42;;;;;;;;;;;;;;;16.89;88.76;96341.72;30002;983;1882;-56
2022/06/24 02:47:13;;;;;;;;;;;;;;;16.86;88.82;96343.19;30002;983;1869;-57
2022/06/24 02:47:44;;;;;;;;;;;;;;;16.86;88.71;96336.91;30002;982;1874;-57
2022/06/24 02:48:16;;;;;;;;;;;;;;;16.86;88.73;96345.94;30002;982;1882;-56
2022/06/24 02:48:46;;;;;;;;;;;;;;;16.84;89.19;96339.19;30001;982;1882;-57
2022/06/24 02:49:17;;;;;;;;;;;;;;;16.86;89.28;96342.41;30002;982;1882;-57
2022/06/24 02:49:48;;;;;;;;;;;;;;;16.92;88.45;96335.53;30002;982;1882;-58
2022/06/24 02:50:19;;;;;;;;;;;;;;;16.94;88.56;96335.97;30002;983;1882;-57
2022/06/24 02:50:51;;;;;;;;;;;;;;;16.96;88.80;96342.72;30002;983;1882;-57
2022/06/24 02:51:21;;;;;;;;;;;;;;;17.00;88.41;96342.78;30002;983;1882;-59
2022/06/24 02:51:52;;;;;;;;;;;;;;;17.03;87.64;96347.59;30002;983;1882;-57
2022/06/24 02:52:24;;;;;;;;;;;;;;;16.97;87.99;96344.31;30002;983;1869;-58
2022/06/24 02:52:54;;;;;;;;;;;;;;;16.92;87.79;96343.75;30002;983;1873;-58
2022/06/24 02:53:26;;;;;;;;;;;;;;;16.86;88.59;96342.41;30002;983;1882;-58
2022/06/24 02:53:57;;;;;;;;;;;;;;;16.87;88.62;96338.50;30002;983;1882;-56
2022/06/24 02:54:27;;;;;;;;;;;;;;;16.83;88.62;96348.56;30002;983;1882;-57
2022/06/24 02:54:58;;;;;;;;;;;;;;;16.80;88.63;96338.28;30002;983;1860;-58
2022/06/24 02:55:33;;;;;;;;;;;;;;;16.74;89.23;96341.28;30002;982;1882;-57
2022/06/24 02:56:07;;;;;;;;;;;;;;;16.73;89.27;96339.66;30002;982;1882;-57
2022/06/24 02:56:38;;;;;;;;;;;;;;;16.72;89.31;96343.56;30002;982;1882;-56
2022/06/24 02:57:09;;;;;;;;;;;;;;;16.70;89.25;96340.34;30002;982;1869;-56
2022/06/24 02:57:40;;;;;;;;;;;;;;;16.68;89.44;96342.66;30002;982;1874;-57
2022/06/24 02:58:11;;;;;;;;;;;;;;;16.71;89.56;96343.91;30002;983;1882;-57
2022/06/24 02:58:42;;;;;;;;;;;;;;;16.75;89.21;96347.53;30002;983;1882;-58